Time;durP1;ratioP1;P1;durP2;ratioP2;P2;SDS_P1;SDS_P2;PMS_P1;PMS_P2;Temp;Humidity;BMP_temperature;BMP_pressure;BME280_temperature;BME280_humidity;BME280_pressure;Samples;Min_cycle;Max_cycle;Signal;HPM_P1;HPM_P2
2024/01/02 00:01:52;;;;;;;6.73;1.70;;;6.10;18.80;;;;;;5030355;28;20494;-66
2024/01/02 00:04:21;;;;;;;4.67;1.50;;;6.10;18.90;;;;;;5025480;28;20494;-67
2024/01/02 00:06:48;;;;;;;8.13;2.13;;;6.10;18.80;;;;;;5024631;28;20471;-67
2024/01/02 00:09:16;;;;;;;6.03;1.80;;;6.10;18.80;;;;;;5022027;28;21029;-67
2024/01/02 00:11:42;;;;;;;8.70;1.97;;;6.10;18.80;;;;;;5025868;28;20509;-67
2024/01/02 00:14:10;;;;;;;6.50;1.90;;;6.10;18.60;;;;;;5029196;28;20487;-67
2024/01/02 00:16:36;;;;;;;7.13;1.87;;;6.10;18.60;;;;;;5025515;28;20468;-67
2024/01/02 00:19:03;;;;;;;7.33;1.83;;;6.10;18.60;;;;;;5033864;28;20466;-67
2024/01/02 00:24:05;;;;;;;4.30;1.57;;;6.10;18.60;;;;;;5022177;28;20517;-65
2024/01/02 00:26:32;;;;;;;6.33;1.63;;;6.10;18.60;;;;;;5027228;28;20550;-65
2024/01/02 00:28:59;;;;;;;6.07;1.70;;;6.10;18.60;;;;;;5035886;28;20537;-65
2024/01/02 00:31:27;;;;;;;4.40;1.60;;;6.10;18.50;;;;;;5032308;28;20478;-65
2024/01/02 00:33:54;;;;;;;8.40;1.90;;;6.10;18.40;;;;;;5026716;28;20486;-65
2024/01/02 00:36:20;;;;;;;4.60;1.57;;;6.10;18.20;;;;;;5026733;28;20872;-65
2024/01/02 00:38:47;;;;;;;5.97;1.73;;;6.10;18.50;;;;;;5028146;28;20466;-65
2024/01/02 00:41:14;;;;;;;4.37;1.57;;;6.10;17.80;;;;;;5026559;28;20467;-65
2024/01/02 00:43:40;;;;;;;4.07;1.30;;;6.20;17.70;;;;;;5030262;28;20479;-65
2024/01/02 00:46:07;;;;;;;7.90;2.07;;;6.20;17.60;;;;;;5032781;28;20475;-65
2024/01/02 00:48:35;;;;;;;4.00;1.17;;;6.20;17.40;;;;;;5027657;28;20466;-65
2024/01/02 00:51:02;;;;;;;8.27;1.43;;;6.20;17.40;;;;;;5030769;28;20947;-65
2024/01/02 00:53:29;;;;;;;11.40;1.70;;;6.20;17.20;;;;;;5026848;28;20491;-65
2024/01/02 00:55:55;;;;;;;6.47;1.70;;;6.30;16.90;;;;;;5032075;28;20471;-65
2024/01/02 00:58:22;;;;;;;5.57;1.33;;;6.30;16.90;;;;;;5029946;28;20455;-65
2024/01/02 01:00:49;;;;;;;4.60;1.10;;;6.30;16.60;;;;;;5031881;28;20883;-66
2024/01/02 01:03:16;;;;;;;5.53;1.93;;;6.30;16.60;;;;;;5038481;28;20839;-65
2024/01/02 01:05:44;;;;;;;5.00;1.30;;;6.30;16.50;;;;;;5035632;28;20804;-65
2024/01/02 01:08:10;;;;;;;5.70;2.40;;;6.30;16.60;;;;;;5030838;28;20977;-66
2024/01/02 01:10:37;;;;;;;5.17;1.30;;;6.30;16.30;;;;;;5030768;28;20487;-65
2024/01/02 01:13:04;;;;;;;9.73;1.80;;;6.30;16.20;;;;;;5036406;28;20490;-65
2024/01/02 01:15:31;;;;;;;3.83;1.03;;;6.40;16.10;;;;;;5034769;28;21057;-65
2024/01/02 01:17:57;;;;;;;6.07;1.90;;;6.40;15.90;;;;;;5038306;28;20462;-65
2024/01/02 01:20:24;;;;;;;5.13;1.17;;;6.40;16.00;;;;;;5030562;28;20466;-65
2024/01/02 01:22:52;;;;;;;4.10;1.30;;;6.40;15.70;;;;;;5035098;28;21061;-65
2024/01/02 01:25:19;;;;;;;5.17;1.50;;;6.40;15.50;;;;;;5035765;28;20465;-65
2024/01/02 01:27:46;;;;;;;4.37;1.07;;;6.40;15.50;;;;;;5025070;28;20485;-65
2024/01/02 01:30:12;;;;;;;8.47;1.30;;;6.50;15.50;;;;;;5027137;28;20490;-65
2024/01/02 01:32:39;;;;;;;4.30;1.10;;;6.50;15.50;;;;;;5029133;28;20482;-65
2024/01/02 01:35:08;;;;;;;3.87;1.10;;;6.50;15.50;;;;;;5027149;28;20454;-65
2024/01/02 01:37:34;;;;;;;5.50;1.27;;;6.50;15.40;;;;;;5030316;28;20466;-65
2024/01/02 01:40:03;;;;;;;3.87;1.00;;;6.50;15.40;;;;;;5027602;28;20466;-65
2024/01/02 01:42:29;;;;;;;4.90;1.27;;;6.50;15.40;;;;;;5029929;28;20454;-65
2024/01/02 01:44:56;;;;;;;5.97;0.97;;;6.60;15.10;;;;;;5027544;28;20820;-65
2024/01/02 01:47:23;;;;;;;4.17;1.10;;;6.60;14.90;;;;;;5027856;28;20466;-65
2024/01/02 01:49:50;;;;;;;6.70;1.40;;;6.60;14.80;;;;;;5027088;28;20482;-65
2024/01/02 01:52:17;;;;;;;4.47;1.00;;;6.60;14.80;;;;;;5027672;28;20482;-65
2024/01/02 01:54:44;;;;;;;6.50;0.90;;;6.60;14.50;;;;;;5028931;28;20478;-65
2024/01/02 01:57:13;;;;;;;6.80;1.27;;;6.60;14.50;;;;;;5029150;28;20463;-65
2024/01/02 01:59:41;;;;;;;3.80;1.07;;;6.70;14.50;;;;;;5029890;28;20459;-65
2024/01/02 02:02:08;;;;;;;3.67;0.80;;;6.70;14.60;;;;;;5030312;28;20829;-65
2024/01/02 02:04:36;;;;;;;3.60;1.03;;;6.70;14.40;;;;;;5032062;28;20781;-65
2024/01/02 02:07:04;;;;;;;5.83;1.10;;;6.70;14.40;;;;;;5029772;28;20470;-65
2024/01/02 02:09:31;;;;;;;3.70;1.07;;;6.70;14.10;;;;;;5034150;28;20865;-65
2024/01/02 02:11:58;;;;;;;4.50;1.23;;;6.70;14.00;;;;;;5032035;28;20458;-65
2024/01/02 02:14:26;;;;;;;4.57;1.10;;;6.70;14.00;;;;;;5029344;28;20483;-65
2024/01/02 02:16:53;;;;;;;5.93;1.07;;;6.70;14.10;;;;;;5029267;28;20459;-65
2024/01/02 02:19:20;;;;;;;4.70;1.10;;;6.70;14.00;;;;;;5030502;28;20461;-65
2024/01/02 02:21:48;;;;;;;7.67;1.63;;;6.80;14.00;;;;;;5031448;28;20454;-65
2024/01/02 02:24:16;;;;;;;4.30;1.20;;;6.80;14.10;;;;;;5030542;28;20503;-65
2024/01/02 02:26:43;;;;;;;4.73;1.10;;;6.80;14.10;;;;;;5029205;28;20474;-66
2024/01/02 02:29:09;;;;;;;4.30;1.10;;;6.80;13.90;;;;;;5028410;28;20467;-65
2024/01/02 02:31:36;;;;;;;3.83;1.23;;;6.80;14.00;;;;;;5028042;28;21228;-65
2024/01/02 02:34:03;;;;;;;8.03;1.70;;;6.80;13.70;;;;;;5030318;28;20494;-65
2024/01/02 02:36:29;;;;;;;3.97;1.17;;;6.80;13.80;;;;;;5028652;28;20853;-65
2024/01/02 02:38:56;;;;;;;3.60;0.90;;;6.80;13.90;;;;;;5028086;28;20471;-64
2024/01/02 02:41:24;;;;;;;4.63;1.07;;;6.80;13.90;;;;;;5031375;28;20463;-65
2024/01/02 02:43:51;;;;;;;4.10;1.00;;;6.80;13.80;;;;;;5029652;28;20518;-65
2024/01/02 02:46:18;;;;;;;3.30;0.90;;;6.90;13.80;;;;;;5032717;28;20478;-65
2024/01/02 02:48:44;;;;;;;5.70;1.43;;;6.90;13.80;;;;;;5029259;28;20463;-65
2024/01/02 02:51:11;;;;;;;4.40;1.47;;;6.90;13.60;;;;;;5031676;28;20483;-65
2024/01/02 02:53:38;;;;;;;4.57;1.30;;;6.90;13.70;;;;;;5037289;28;20511;-65
2024/01/02 02:56:05;;;;;;;4.73;0.97;;;6.90;13.60;;;;;;5027953;28;20467;-65
2024/01/02 02:58:33;;;;;;;9.03;2.03;;;6.90;13.50;;;;;;5032250;28;20470;-65
2024/01/02 03:00:59;;;;;;;6.30;1.40;;;6.90;14.00;;;;;;5027805;28;20482;-65
2024/01/02 03:03:26;;;;;;;5.50;1.17;;;6.90;13.50;;;;;;5032097;28;20505;-65
2024/01/02 03:05:53;;;;;;;5.10;1.30;;;6.90;13.40;;;;;;5031386;28;20455;-65
2024/01/02 03:08:20;;;;;;;9.60;3.13;;;7.00;13.20;;;;;;5032291;28;20466;-65
2024/01/02 03:10:49;;;;;;;4.60;1.63;;;7.00;13.10;;;;;;5031762;28;20478;-65
2024/01/02 03:13:15;;;;;;;4.27;1.30;;;7.00;13.20;;;;;;5025705;28;20532;-65
2024/01/02 03:15:44;;;;;;;4.83;1.33;;;7.00;13.10;;;;;;5032924;28;21306;-65
2024/01/02 03:18:10;;;;;;;4.30;0.90;;;7.00;13.10;;;;;;5030669;28;20466;-65
2024/01/02 03:20:37;;;;;;;4.00;1.20;;;7.00;13.00;;;;;;5027377;28;20460;-65
2024/01/02 03:23:04;;;;;;;4.20;1.33;;;7.00;13.10;;;;;;5027060;28;20490;-65
2024/01/02 03:25:30;;;;;;;5.23;1.50;;;7.10;13.10;;;;;;5025706;28;20810;-65
2024/01/02 03:27:57;;;;;;;4.47;1.50;;;7.00;13.00;;;;;;5029316;28;20966;-65
2024/01/02 03:30:24;;;;;;;5.30;1.20;;;7.00;13.30;;;;;;5029106;28;20482;-65
2024/01/02 03:32:52;;;;;;;4.47;1.20;;;7.00;13.30;;;;;;5029875;28;20486;-65
2024/01/02 03:35:18;;;;;;;4.20;1.33;;;7.00;13.50;;;;;;5024655;28;20943;-65
2024/01/02 03:37:45;;;;;;;3.80;1.00;;;7.00;13.70;;;;;;5027769;28;20467;-65
2024/01/02 03:40:14;;;;;;;7.07;1.07;;;7.00;13.80;;;;;;5026535;28;20455;-65
2024/01/02 03:42:41;;;;;;;4.50;1.30;;;7.00;13.80;;;;;;5024525;28;20562;-65
2024/01/02 03:45:09;;;;;;;4.17;1.17;;;7.00;13.90;;;;;;5027045;28;20470;-65
2024/01/02 03:47:36;;;;;;;4.87;1.10;;;6.90;14.10;;;;;;5028253;28;20459;-65
2024/01/02 03:50:04;;;;;;;5.17;1.30;;;6.90;14.00;;;;;;5028777;28;20479;-65
2024/01/02 03:52:31;;;;;;;4.10;1.10;;;6.90;14.00;;;;;;5026544;28;20472;-65
2024/01/02 03:54:58;;;;;;;4.67;1.10;;;7.00;13.60;;;;;;5025921;28;20498;-65
2024/01/02 03:57:26;;;;;;;4.60;1.30;;;7.00;13.60;;;;;;5028264;28;20471;-65
2024/01/02 03:59:53;;;;;;;3.97;1.00;;;7.00;13.60;;;;;;5026882;28;20455;-65
2024/01/02 04:02:20;;;;;;;3.70;1.10;;;7.00;13.60;;;;;;5022908;28;20471;-65
2024/01/02 04:04:46;;;;;;;4.17;0.80;;;7.00;13.40;;;;;;5027060;28;20463;-65
2024/01/02 04:07:14;;;;;;;3.73;1.13;;;7.00;13.30;;;;;;5026600;28;20455;-66
2024/01/02 04:09:42;;;;;;;5.40;0.93;;;7.00;13.20;;;;;;5027674;28;20462;-66
2024/01/02 04:12:08;;;;;;;4.40;1.13;;;7.00;13.20;;;;;;5027649;28;20459;-66
2024/01/02 04:14:35;;;;;;;3.70;0.80;;;7.00;13.20;;;;;;5028057;28;20481;-66
2024/01/02 04:17:03;;;;;;;4.53;1.17;;;7.00;13.00;;;;;;5030318;28;20932;-66
2024/01/02 04:19:29;;;;;;;4.37;1.03;;;7.10;12.90;;;;;;5031037;28;20542;-66
2024/01/02 04:21:56;;;;;;;4.00;0.87;;;7.10;12.80;;;;;;5052737;22;20500;-69
2024/01/02 04:24:25;;;;;;;4.77;1.00;;;7.00;12.80;;;;;;5039102;28;20485;-67
2024/01/02 04:26:53;;;;;;;3.50;1.00;;;7.10;12.60;;;;;;5043341;28;20494;-67
2024/01/02 04:29:19;;;;;;;3.87;1.47;;;7.00;12.80;;;;;;5042087;28;20474;-67
2024/01/02 04:31:46;;;;;;;3.60;0.90;;;7.10;12.60;;;;;;5044389;28;20496;-67
2024/01/02 04:34:13;;;;;;;3.80;0.80;;;7.10;12.70;;;;;;5045550;28;20481;-70
2024/01/02 04:36:41;;;;;;;3.50;0.80;;;7.10;12.90;;;;;;5044795;28;20460;-69
2024/01/02 04:39:07;;;;;;;3.50;0.70;;;7.10;13.20;;;;;;5048995;28;20885;-71
2024/01/02 04:41:35;;;;;;;8.33;1.37;;;7.10;13.20;;;;;;5051536;28;20454;-70
2024/01/02 04:44:02;;;;;;;3.70;0.90;;;7.10;13.60;;;;;;5048108;28;20938;-70
2024/01/02 04:46:29;;;;;;;4.13;0.93;;;7.10;13.60;;;;;;5045276;28;20476;-69
2024/01/02 04:48:56;;;;;;;3.73;0.80;;;7.10;13.60;;;;;;5047440;28;20469;-70
2024/01/02 04:51:23;;;;;;;3.57;1.13;;;7.10;13.40;;;;;;5050840;28;20479;-70
2024/01/02 04:53:49;;;;;;;4.57;1.07;;;7.10;13.70;;;;;;5051286;28;20477;-68
2024/01/02 04:56:16;;;;;;;5.30;1.07;;;7.10;13.90;;;;;;5049725;28;20553;-70
2024/01/02 04:58:44;;;;;;;3.43;1.00;;;7.10;14.00;;;;;;5052630;28;20790;-69
2024/01/02 05:01:11;;;;;;;3.90;1.10;;;7.10;13.90;;;;;;5047073;28;20473;-69
2024/01/02 05:03:38;;;;;;;4.07;1.10;;;7.10;14.00;;;;;;5049648;28;20581;-69
2024/01/02 05:06:05;;;;;;;4.30;0.80;;;7.10;13.90;;;;;;5048176;28;20480;-68
2024/01/02 05:08:31;;;;;;;3.70;1.20;;;7.10;13.80;;;;;;5045875;28;20472;-69
2024/01/02 05:10:58;;;;;;;5.20;1.13;;;7.00;13.80;;;;;;5047039;28;20486;-69
2024/01/02 05:13:25;;;;;;;4.10;1.23;;;7.00;14.00;;;;;;5049185;28;21017;-69
2024/01/02 05:15:53;;;;;;;5.00;0.80;;;7.00;13.90;;;;;;5045889;28;20463;-65
2024/01/02 05:18:18;;;;;;;4.53;0.90;;;7.00;14.10;;;;;;5049195;28;20466;-65
2024/01/02 05:20:47;;;;;;;4.60;1.60;;;7.00;14.30;;;;;;5042408;28;20476;-65
2024/01/02 05:23:13;;;;;;;3.53;1.30;;;7.00;14.40;;;;;;5045308;28;20227;-65
2024/01/02 05:25:42;;;;;;;4.07;1.23;;;7.00;14.50;;;;;;5051084;28;20458;-65
2024/01/02 05:28:09;;;;;;;3.40;0.97;;;7.00;14.70;;;;;;5048591;28;21045;-67
2024/01/02 05:30:35;;;;;;;3.50;0.77;;;7.00;15.00;;;;;;5046451;28;21004;-68
2024/01/02 05:33:04;;;;;;;4.17;0.90;;;7.00;15.10;;;;;;5047793;28;20492;-72
2024/01/02 05:35:31;;;;;;;4.10;1.10;;;7.00;15.30;;;;;;5052229;28;20476;-67
2024/01/02 05:37:57;;;;;;;3.43;1.10;;;7.00;15.50;;;;;;5050348;28;20468;-67
2024/01/02 05:40:24;;;;;;;4.23;1.00;;;6.90;15.60;;;;;;5051580;28;20485;-68
2024/01/02 05:42:51;;;;;;;3.70;1.10;;;6.90;15.80;;;;;;5044134;28;20896;-65
2024/01/02 05:45:18;;;;;;;3.63;1.00;;;7.00;15.80;;;;;;5047797;28;21018;-67
2024/01/02 05:47:45;;;;;;;4.90;2.87;;;6.90;15.90;;;;;;5047017;28;20458;-66
2024/01/02 05:50:13;;;;;;;7.17;3.50;;;7.00;15.90;;;;;;5044411;28;20524;-66
2024/01/02 05:52:40;;;;;;;4.83;2.20;;;7.00;15.80;;;;;;5043733;28;20491;-68
2024/01/02 05:55:07;;;;;;;6.50;2.20;;;7.00;15.90;;;;;;5047514;28;21081;-65
2024/01/02 05:57:34;;;;;;;5.63;2.00;;;7.00;16.00;;;;;;5045920;28;20965;-66
2024/01/02 06:00:00;;;;;;;5.50;1.67;;;7.00;16.00;;;;;;5045515;28;20466;-66
2024/01/02 06:02:27;;;;;;;6.40;2.00;;;7.00;15.90;;;;;;5044777;28;20507;-66
2024/01/02 06:04:54;;;;;;;5.50;1.60;;;7.00;15.90;;;;;;5040748;28;20470;-65
2024/01/02 06:07:22;;;;;;;4.53;1.23;;;7.00;15.90;;;;;;5044136;28;20462;-65
2024/01/02 06:09:48;;;;;;;6.97;2.17;;;7.00;15.90;;;;;;5043580;28;20845;-65
2024/01/02 06:12:15;;;;;;;5.50;1.47;;;7.00;16.10;;;;;;5044953;28;20600;-65
2024/01/02 06:14:42;;;;;;;4.00;1.30;;;7.00;16.20;;;;;;5039371;28;20482;-65
2024/01/02 06:17:09;;;;;;;3.43;1.07;;;7.00;16.00;;;;;;5045323;28;20469;-67
2024/01/02 06:19:35;;;;;;;7.07;1.60;;;7.00;16.00;;;;;;5042749;28;20466;-67
2024/01/02 06:22:02;;;;;;;4.83;1.57;;;7.00;15.90;;;;;;5043868;28;20473;-68
2024/01/02 06:24:30;;;;;;;3.33;0.80;;;7.00;16.00;;;;;;5040828;28;20478;-67
2024/01/02 06:26:57;;;;;;;4.23;1.40;;;7.10;15.60;;;;;;5041022;28;20826;-69
2024/01/02 06:29:25;;;;;;;3.93;1.13;;;7.10;15.70;;;;;;5041065;28;20463;-68
2024/01/02 06:31:51;;;;;;;4.77;1.30;;;7.10;15.70;;;;;;5045296;28;20478;-66
2024/01/02 06:34:18;;;;;;;4.20;1.30;;;7.10;15.50;;;;;;5042814;28;20485;-65
2024/01/02 06:36:45;;;;;;;3.63;1.10;;;7.10;16.00;;;;;;5047101;28;20957;-65
2024/01/02 06:39:15;;;;;;;4.80;1.20;;;7.10;15.30;;;;;;5041859;28;20861;-66
2024/01/02 06:41:43;;;;;;;3.57;1.17;;;7.10;15.30;;;;;;5041008;28;20454;-66
2024/01/02 06:44:10;;;;;;;3.93;1.43;;;7.10;15.20;;;;;;5045950;28;20484;-66
2024/01/02 06:46:37;;;;;;;4.53;1.40;;;7.10;15.10;;;;;;5044722;28;20469;-66
2024/01/02 06:49:03;;;;;;;4.33;1.07;;;7.10;14.90;;;;;;5046478;28;20473;-65
2024/01/02 06:51:30;;;;;;;3.77;1.03;;;7.20;14.90;;;;;;5043610;28;20990;-65
2024/01/02 06:53:57;;;;;;;3.27;0.90;;;7.20;14.90;;;;;;5041702;28;20512;-65
2024/01/02 06:56:23;;;;;;;3.30;0.97;;;7.20;14.90;;;;;;5045830;28;20862;-65
2024/01/02 06:58:51;;;;;;;3.33;0.97;;;7.20;15.00;;;;;;5046626;28;20458;-66
2024/01/02 07:01:18;;;;;;;5.07;1.00;;;7.30;15.10;;;;;;5046541;28;20469;-65
2024/01/02 07:03:45;;;;;;;5.90;0.90;;;7.30;15.00;;;;;;5043712;28;20478;-65
2024/01/02 07:06:12;;;;;;;3.20;0.70;;;7.30;14.90;;;;;;5046415;28;21163;-64
2024/01/02 07:08:38;;;;;;;3.00;0.60;;;7.40;15.00;;;;;;5044969;28;20462;-65
2024/01/02 07:11:06;;;;;;;3.20;0.83;;;7.40;15.00;;;;;;5045230;28;20479;-65
2024/01/02 07:13:32;;;;;;;4.40;0.73;;;7.40;15.00;;;;;;5045863;28;20486;-65
2024/01/02 07:16:00;;;;;;;3.10;0.70;;;7.40;15.00;;;;;;5046145;28;20462;-65
2024/01/02 07:18:30;;;;;;;5.93;1.10;;;7.50;15.20;;;;;;5039387;28;20462;-64
2024/01/02 07:20:56;;;;;;;3.40;0.90;;;7.50;15.30;;;;;;5040158;28;20846;-65
2024/01/02 07:23:23;;;;;;;4.50;1.00;;;7.50;15.30;;;;;;5044325;28;20497;-66
2024/01/02 07:25:50;;;;;;;3.60;0.87;;;7.60;15.10;;;;;;5042971;28;20454;-65
2024/01/02 07:28:18;;;;;;;3.10;0.70;;;7.60;15.10;;;;;;5044034;28;20461;-65
2024/01/02 07:30:47;;;;;;;8.23;1.33;;;7.60;15.10;;;;;;5041110;28;20463;-66
2024/01/02 07:33:16;;;;;;;3.30;1.00;;;7.60;15.00;;;;;;5040095;28;21460;-65
2024/01/02 07:35:42;;;;;;;3.23;0.57;;;7.60;15.00;;;;;;5044196;28;20462;-65
2024/01/02 07:38:09;;;;;;;3.13;0.57;;;7.70;15.10;;;;;;5045404;28;20458;-65
2024/01/02 07:40:36;;;;;;;3.97;0.97;;;7.70;15.10;;;;;;5041139;28;20459;-65
2024/01/02 07:43:03;;;;;;;5.20;0.83;;;7.70;15.10;;;;;;5044769;28;21005;-65
2024/01/02 07:45:30;;;;;;;3.60;0.80;;;7.70;15.20;;;;;;5041748;28;20481;-66
2024/01/02 07:47:57;;;;;;;3.10;0.70;;;7.80;15.30;;;;;;5046671;28;20458;-66
2024/01/02 07:50:25;;;;;;;3.20;0.70;;;7.70;15.40;;;;;;5040685;28;20465;-69
2024/01/02 07:52:52;;;;;;;3.53;0.63;;;7.80;15.40;;;;;;5039723;28;20569;-69
2024/01/02 07:55:17;;;;;;;3.57;0.70;;;7.80;15.40;;;;;;5042507;28;20462;-68
2024/01/02 07:57:44;;;;;;;3.20;0.70;;;7.80;15.40;;;;;;5043122;28;20467;-69
2024/01/02 08:00:13;;;;;;;3.00;0.67;;;7.90;15.60;;;;;;5044444;28;20203;-69
2024/01/02 08:02:40;;;;;;;3.20;0.67;;;7.90;15.60;;;;;;5042263;28;20475;-70
2024/01/02 08:05:07;;;;;;;3.40;0.50;;;7.90;15.70;;;;;;5043356;28;20466;-68
2024/01/02 08:07:35;;;;;;;3.20;0.50;;;7.90;15.80;;;;;;5042805;28;20462;-68
2024/01/02 08:10:03;;;;;;;4.60;0.80;;;7.90;15.90;;;;;;5045347;28;20461;-68
2024/01/02 08:12:30;;;;;;;3.03;0.80;;;8.00;16.00;;;;;;5043278;28;20474;-68
2024/01/02 08:14:57;;;;;;;3.23;0.80;;;8.00;16.00;;;;;;5043990;28;20805;-67
2024/01/02 08:17:24;;;;;;;4.07;0.90;;;8.00;16.10;;;;;;5042327;28;20462;-68
2024/01/02 08:19:51;;;;;;;3.80;0.80;;;8.00;16.10;;;;;;5044563;28;20458;-67
2024/01/02 08:22:17;;;;;;;3.27;0.70;;;8.10;16.20;;;;;;5043550;28;20502;-67
2024/01/02 08:24:46;;;;;;;3.00;0.60;;;8.10;16.30;;;;;;5045232;28;20466;-67
2024/01/02 08:27:13;;;;;;;3.00;0.70;;;8.10;16.40;;;;;;5045713;28;20934;-68
2024/01/02 08:29:39;;;;;;;3.37;0.50;;;8.10;16.50;;;;;;5046136;28;20559;-67
2024/01/02 08:32:07;;;;;;;3.20;0.70;;;8.10;16.70;;;;;;5045217;28;20481;-66
2024/01/02 08:34:34;;;;;;;3.27;0.60;;;8.20;16.80;;;;;;5041912;28;20565;-67
2024/01/02 08:37:00;;;;;;;3.30;0.70;;;8.20;16.70;;;;;;5040749;28;20876;-67
2024/01/02 08:39:27;;;;;;;5.13;0.83;;;8.20;16.90;;;;;;5041702;28;20471;-67
2024/01/02 08:41:55;;;;;;;3.10;0.70;;;8.20;16.90;;;;;;5043876;28;20965;-68
2024/01/02 08:44:22;;;;;;;2.90;0.60;;;8.20;17.10;;;;;;5043763;28;20557;-67
2024/01/02 08:46:49;;;;;;;2.90;0.50;;;8.20;17.20;;;;;;5045068;28;20469;-67
2024/01/02 08:49:15;;;;;;;3.50;0.90;;;8.20;17.30;;;;;;5041963;28;20463;-68
2024/01/02 08:51:42;;;;;;;3.10;0.60;;;8.20;17.50;;;;;;5044333;28;20850;-70
2024/01/02 08:54:09;;;;;;;3.57;0.70;;;8.20;17.50;;;;;;5042484;28;20496;-69
2024/01/02 08:56:36;;;;;;;3.07;0.53;;;8.20;17.60;;;;;;5043523;28;20958;-68
2024/01/02 08:59:04;;;;;;;2.97;0.70;;;8.20;17.80;;;;;;5043304;28;20470;-70
2024/01/02 09:01:30;;;;;;;2.90;0.57;;;8.20;17.80;;;;;;5044709;28;20474;-69
2024/01/02 09:03:57;;;;;;;3.27;0.70;;;8.20;17.90;;;;;;5043008;28;20481;-69
2024/01/02 09:06:24;;;;;;;3.10;0.50;;;8.20;18.00;;;;;;5042115;28;20458;-68
2024/01/02 09:08:51;;;;;;;2.90;0.50;;;8.20;18.10;;;;;;5041869;28;20468;-69
2024/01/02 09:11:18;;;;;;;3.10;0.60;;;8.30;18.30;;;;;;5043178;28;20467;-69
2024/01/02 09:13:44;;;;;;;3.00;0.50;;;8.30;18.30;;;;;;5043271;28;21004;-69
2024/01/02 09:16:12;;;;;;;4.40;0.60;;;8.30;18.40;;;;;;5043127;28;20466;-68
2024/01/02 09:18:39;;;;;;;2.83;0.40;;;8.30;18.50;;;;;;5040924;28;20928;-68
2024/01/02 09:21:06;;;;;;;3.50;0.60;;;8.30;18.70;;;;;;5045646;28;20465;-67
2024/01/02 09:23:34;;;;;;;3.30;0.80;;;8.30;18.80;;;;;;5045622;28;20492;-67
2024/01/02 09:26:05;;;;;;;2.93;0.40;;;8.30;18.80;;;;;;5046044;28;20527;-67
2024/01/02 09:28:33;;;;;;;3.00;0.50;;;8.40;18.80;;;;;;5047496;28;20466;-67
2024/01/02 09:31:00;;;;;;;2.90;0.50;;;8.40;18.70;;;;;;5044103;28;20482;-69
2024/01/02 09:33:28;;;;;;;3.00;0.67;;;8.40;18.70;;;;;;5041470;28;20481;-68
2024/01/02 09:35:54;;;;;;;2.90;0.40;;;8.40;18.40;;;;;;5047202;28;20488;-68
2024/01/02 09:38:21;;;;;;;3.40;0.60;;;8.50;18.50;;;;;;5048937;28;20457;-68
2024/01/02 09:41:13;;;;;;;3.03;0.43;;;8.40;18.40;;;;;;5045669;28;20869;-67
2024/01/02 09:43:55;;;;;;;3.33;0.70;;;8.50;18.40;;;;;;5045880;28;20481;-67
2024/01/02 09:46:31;;;;;;;3.00;0.50;;;8.50;18.30;;;;;;5045398;28;20993;-67
2024/01/02 09:49:13;;;;;;;3.50;0.50;;;8.60;18.00;;;;;;5046561;28;20466;-67
2024/01/02 09:51:51;;;;;;;2.80;0.50;;;8.60;18.10;;;;;;5043255;28;20454;-67
2024/01/02 09:54:32;;;;;;;3.20;0.50;;;8.60;17.70;;;;;;5047920;28;20853;-68
2024/01/02 09:57:05;;;;;;;4.47;0.53;;;8.70;17.70;;;;;;5042429;28;20462;-67
2024/01/02 09:59:47;;;;;;;3.13;0.60;;;8.70;17.60;;;;;;5043522;28;20521;-69
2024/01/02 10:02:48;;;;;;;3.43;0.60;;;8.70;17.60;;;;;;5044236;28;20477;-69
2024/01/02 10:05:26;;;;;;;2.90;0.40;;;8.80;17.20;;;;;;5045052;28;20993;-69
2024/01/02 10:08:15;;;;;;;3.30;0.60;;;8.80;17.10;;;;;;5044182;28;20462;-67
2024/01/02 10:10:54;;;;;;;2.90;0.40;;;8.80;17.20;;;;;;5046891;28;20462;-67
2024/01/02 10:13:24;;;;;;;2.90;0.40;;;8.90;17.30;;;;;;5043877;28;20481;-66
2024/01/02 10:16:03;;;;;;;3.13;0.53;;;8.80;17.00;;;;;;5045364;28;20543;-65
2024/01/02 10:18:44;;;;;;;4.10;1.10;;;8.90;17.00;;;;;;5045647;28;20466;-66
2024/01/02 10:21:22;;;;;;;7.20;0.57;;;8.90;17.10;;;;;;5043792;28;20473;-65
2024/01/02 10:24:00;;;;;;;3.00;0.70;;;9.00;16.90;;;;;;5047779;28;20484;-66
2024/01/02 10:26:30;;;;;;;2.90;0.50;;;9.00;17.00;;;;;;5067523;22;20496;-70
2024/01/02 10:29:04;;;;;;;3.50;0.60;;;9.00;17.00;;;;;;5064220;28;20891;-72
2024/01/02 10:31:40;;;;;;;3.07;0.73;;;9.00;16.80;;;;;;5066406;28;20469;-70
2024/01/02 10:34:17;;;;;;;3.10;0.50;;;9.10;16.80;;;;;;5064880;28;20477;-69
2024/01/02 10:36:53;;;;;;;3.53;1.03;;;9.10;16.80;;;;;;5060138;28;20464;-67
2024/01/02 10:39:27;;;;;;;3.20;0.60;;;9.10;16.70;;;;;;5063671;28;20465;-66
2024/01/02 10:41:58;;;;;;;3.50;0.83;;;9.10;16.50;;;;;;5063843;28;20464;-68
2024/01/02 10:44:37;;;;;;;7.37;2.77;;;9.10;16.60;;;;;;5066837;28;20522;-68
2024/01/02 10:47:12;;;;;;;3.33;0.73;;;9.20;16.60;;;;;;5064332;28;20457;-70
2024/01/02 10:49:41;;;;;;;2.90;0.53;;;9.20;16.50;;;;;;5062564;28;20461;-70
2024/01/02 10:52:18;;;;;;;2.93;0.50;;;9.30;16.60;;;;;;5065017;28;20525;-70
2024/01/02 10:54:54;;;;;;;3.97;1.30;;;9.30;16.30;;;;;;5064760;28;20470;-70
2024/01/02 10:57:33;;;;;;;2.97;0.57;;;9.40;16.10;;;;;;5062100;28;20433;-69
2024/01/02 11:00:07;;;;;;;3.10;0.50;;;9.40;16.00;;;;;;5060254;28;20992;-70
2024/01/02 11:02:47;;;;;;;3.03;0.53;;;9.50;15.80;;;;;;5063293;28;20473;-72
2024/01/02 11:05:23;;;;;;;3.10;0.50;;;9.50;15.80;;;;;;5061998;28;20468;-71
2024/01/02 11:08:00;;;;;;;4.10;0.47;;;9.60;15.60;;;;;;5064827;28;20544;-70
2024/01/02 11:10:29;;;;;;;2.90;0.50;;;9.50;15.70;;;;;;5060461;28;20460;-71
2024/01/02 11:13:01;;;;;;;2.90;0.57;;;9.60;15.40;;;;;;5065157;28;20488;-70
2024/01/02 11:15:32;;;;;;;2.80;0.40;;;9.60;15.50;;;;;;5063323;28;20469;-69
2024/01/02 11:17:59;;;;;;;2.80;0.40;;;9.60;15.50;;;;;;5063006;28;21299;-70
2024/01/02 11:20:33;;;;;;;3.00;0.40;;;9.60;15.50;;;;;;5061507;28;20468;-69
2024/01/02 11:23:05;;;;;;;2.87;0.47;;;9.70;15.50;;;;;;5067182;28;20490;-70
2024/01/02 11:25:34;;;;;;;2.90;0.50;;;9.70;15.50;;;;;;5064075;28;21058;-69
2024/01/02 11:28:03;;;;;;;3.10;0.53;;;9.70;15.40;;;;;;5063364;28;20549;-70
2024/01/02 11:30:35;;;;;;;3.10;0.53;;;9.70;15.40;;;;;;5059532;28;20482;-68
2024/01/02 11:33:10;;;;;;;2.83;0.53;;;9.70;15.20;;;;;;5060583;28;20996;-70
2024/01/02 11:35:45;;;;;;;3.10;0.50;;;9.80;15.10;;;;;;5058109;28;20461;-70
2024/01/02 11:38:18;;;;;;;3.10;0.60;;;9.80;15.10;;;;;;5064868;28;20464;-69
2024/01/02 11:40:58;;;;;;;3.00;0.40;;;9.90;15.20;;;;;;5060742;28;21048;-69
2024/01/02 11:43:33;;;;;;;3.20;0.77;;;9.90;14.80;;;;;;5065039;28;20468;-69
2024/01/02 11:46:00;;;;;;;3.70;0.50;;;9.90;14.90;;;;;;5064145;28;20468;-69
2024/01/02 11:48:42;;;;;;;2.90;0.60;;;9.90;14.90;;;;;;5064363;28;20464;-69
2024/01/02 11:51:18;;;;;;;2.90;0.57;;;9.90;15.00;;;;;;5064618;28;20465;-69
2024/01/02 11:54:01;;;;;;;2.90;0.63;;;9.90;15.50;;;;;;5063045;28;20481;-69
2024/01/02 11:56:33;;;;;;;3.43;0.60;;;10.00;14.70;;;;;;5061050;28;20476;-69
2024/01/02 11:59:12;;;;;;;5.00;0.50;;;10.00;14.60;;;;;;5065395;28;20532;-69
2024/01/02 12:01:53;;;;;;;2.83;0.53;;;10.00;14.70;;;;;;5067898;28;20469;-69
2024/01/02 12:04:35;;;;;;;2.80;0.40;;;10.00;14.60;;;;;;5060796;28;20473;-71
2024/01/02 12:07:12;;;;;;;2.80;0.60;;;10.10;14.80;;;;;;5064194;28;20457;-71
2024/01/02 12:09:44;;;;;;;3.20;0.63;;;10.10;14.70;;;;;;5061350;28;20461;-71
2024/01/02 12:12:18;;;;;;;3.00;0.60;;;10.10;14.50;;;;;;5062800;28;20965;-71
2024/01/02 12:14:54;;;;;;;2.80;0.40;;;10.10;14.50;;;;;;5062911;28;20452;-72
2024/01/02 12:17:25;;;;;;;2.90;0.47;;;10.20;14.60;;;;;;5062711;28;20472;-71
2024/01/02 12:19:57;;;;;;;3.00;0.53;;;10.20;14.50;;;;;;5063148;28;20454;-71
2024/01/02 12:22:24;;;;;;;2.83;0.50;;;10.20;14.40;;;;;;5067808;28;20453;-71
2024/01/02 12:24:53;;;;;;;3.00;0.40;;;10.30;14.20;;;;;;5065199;28;20453;-71
2024/01/02 12:27:23;;;;;;;2.90;0.40;;;10.30;14.30;;;;;;5064808;28;20454;-71
2024/01/02 12:29:55;;;;;;;3.07;0.50;;;10.30;14.10;;;;;;5063212;28;20461;-71
2024/01/02 12:32:33;;;;;;;2.90;0.30;;;10.30;14.40;;;;;;5067253;28;20766;-70
2024/01/02 12:35:05;;;;;;;2.87;0.40;;;10.30;14.20;;;;;;5063746;28;20457;-69
2024/01/02 12:37:37;;;;;;;2.90;0.40;;;10.30;14.20;;;;;;5064935;28;20461;-72
2024/01/02 12:40:10;;;;;;;2.90;0.57;;;10.30;14.40;;;;;;5055694;28;20460;-73
2024/01/02 12:42:41;;;;;;;2.87;0.50;;;10.30;14.50;;;;;;5075697;28;20452;-73
2024/01/02 12:45:21;;;;;;;2.87;0.40;;;10.30;14.40;;;;;;5085084;28;20567;-72
2024/01/02 12:47:51;;;;;;;2.90;0.40;;;10.30;14.50;;;;;;5065342;28;20874;-72
2024/01/02 12:50:20;;;;;;;3.07;0.60;;;10.30;14.50;;;;;;5063011;28;20460;-71
2024/01/02 12:52:51;;;;;;;2.83;0.40;;;10.30;14.10;;;;;;5066666;28;20489;-72
2024/01/02 12:55:20;;;;;;;3.63;0.57;;;10.30;14.30;;;;;;5065720;28;20445;-72
2024/01/02 12:57:48;;;;;;;2.77;0.33;;;10.30;14.40;;;;;;5070412;28;20460;-71
2024/01/02 13:00:17;;;;;;;3.30;0.60;;;10.30;14.20;;;;;;5068619;28;20463;-72
2024/01/02 13:02:45;;;;;;;3.83;0.53;;;10.30;14.40;;;;;;5070204;28;20476;-73
2024/01/02 13:05:13;;;;;;;2.90;0.40;;;10.30;14.30;;;;;;5064826;28;20546;-72
2024/01/02 13:07:42;;;;;;;3.10;0.50;;;10.30;14.30;;;;;;5068040;28;20486;-72